sensor_id;sensor_type;location;lat;lon;timestamp;pressure;altitude;pressure_sealevel;temperature;humidity
81232;BME280;70703;55.652;37.710;2023-11-18T00:00:00;101104.09;;;-2.53;52.12
81232;BME280;70703;55.652;37.710;2023-11-18T00:00:15;101101.47;;;-2.53;51.85
81232;BME280;70703;55.652;37.710;2023-11-18T00:00:29;101106.63;;;-2.52;51.93
81232;BME280;70703;55.652;37.710;2023-11-18T00:00:41;101104.97;;;-2.53;52.01
81232;BME280;70703;55.652;37.710;2023-11-18T00:00:54;101095.31;;;-2.52;51.85
81232;BME280;70703;55.652;37.710;2023-11-18T00:01:06;101095.53;;;-2.57;52.21
81232;BME280;70703;55.652;37.710;2023-11-18T00:01:20;101095.53;;;-2.57;51.87
81232;BME280;70703;55.652;37.710;2023-11-18T00:01:32;101089.50;;;-2.59;51.83
81232;BME280;70703;55.652;37.710;2023-11-18T00:01:43;101070.66;;;-2.67;51.70
81232;BME280;70703;55.652;37.710;2023-11-18T00:01:55;101098.16;;;-2.57;52.03
81232;BME280;70703;55.652;37.710;2023-11-18T00:02:08;101099.84;;;-2.56;51.88
81232;BME280;70703;55.652;37.710;2023-11-18T00:02:20;101079.47;;;-2.68;51.83
81232;BME280;70703;55.652;37.710;2023-11-18T00:02:32;101091.38;;;-2.61;51.99
81232;BME280;70703;55.652;37.710;2023-11-18T00:02:45;101108.50;;;-2.54;52.17
81232;BME280;70703;55.652;37.710;2023-11-18T00:02:58;101102.41;;;-2.54;51.85
81232;BME280;70703;55.652;37.710;2023-11-18T00:03:10;101105.03;;;-2.54;52.11
81232;BME280;70703;55.652;37.710;2023-11-18T00:03:22;101108.50;;;-2.54;51.93
81232;BME280;70703;55.652;37.710;2023-11-18T00:03:34;101099.84;;;-2.56;51.97
81232;BME280;70703;55.652;37.710;2023-11-18T00:03:45;101103.25;;;-2.54;51.95
81232;BME280;70703;55.652;37.710;2023-11-18T00:03:57;101098.94;;;-2.55;52.01
81232;BME280;70703;55.652;37.710;2023-11-18T00:04:09;101096.47;;;-2.58;51.66
81232;BME280;70703;55.652;37.710;2023-11-18T00:04:26;101082.84;;;-2.66;52.10
81232;BME280;70703;55.652;37.710;2023-11-18T00:04:39;101098.94;;;-2.55;51.76
81232;BME280;70703;55.652;37.710;2023-11-18T00:04:51;101098.94;;;-2.55;51.92
81232;BME280;70703;55.652;37.710;2023-11-18T00:05:06;101101.53;;;-2.55;52.07
81232;BME280;70703;55.652;37.710;2023-11-18T00:05:19;101095.53;;;-2.57;52.05
81232;BME280;70703;55.652;37.710;2023-11-18T00:05:32;101093.06;;;-2.60;51.93
81232;BME280;70703;55.652;37.710;2023-11-18T00:05:44;101094.88;;;-2.62;51.98
81232;BME280;70703;55.652;37.710;2023-11-18T00:05:56;101105.16;;;-2.57;52.17
81232;BME280;70703;55.652;37.710;2023-11-18T00:06:09;101097.28;;;-2.57;51.94
81232;BME280;70703;55.652;37.710;2023-11-18T00:06:21;101091.38;;;-2.61;52.07
81232;BME280;70703;55.652;37.710;2023-11-18T00:06:33;101108.63;;;-2.57;52.00
81232;BME280;70703;55.652;37.710;2023-11-18T00:06:46;101106.03;;;-2.57;52.02
81232;BME280;70703;55.652;37.710;2023-11-18T00:06:57;101102.53;;;-2.57;52.23
81232;BME280;70703;55.652;37.710;2023-11-18T00:07:11;101101.75;;;-2.60;52.26
81232;BME280;70703;55.652;37.710;2023-11-18T00:07:25;101106.94;;;-2.58;51.93
81232;BME280;70703;55.652;37.710;2023-11-18T00:07:36;101096.75;;;-2.64;52.37
81232;BME280;70703;55.652;37.710;2023-11-18T00:07:48;101100.97;;;-2.62;52.21
81232;BME280;70703;55.652;37.710;2023-11-18T00:07:59;101084.84;;;-2.71;52.45
81232;BME280;70703;55.652;37.710;2023-11-18T00:08:13;101107.78;;;-2.57;52.15
81232;BME280;70703;55.652;37.710;2023-11-18T00:08:24;101103.47;;;-2.58;52.33
81232;BME280;70703;55.652;37.710;2023-11-18T00:08:38;101098.41;;;-2.63;52.20
81232;BME280;70703;55.652;37.710;2023-11-18T00:08:51;101103.47;;;-2.58;52.27
81232;BME280;70703;55.652;37.710;2023-11-18T00:09:04;101106.94;;;-2.58;52.28
81232;BME280;70703;55.652;37.710;2023-11-18T00:09:17;101106.09;;;-2.58;52.16
81232;BME280;70703;55.652;37.710;2023-11-18T00:09:31;101110.47;;;-2.59;52.40
81232;BME280;70703;55.652;37.710;2023-11-18T00:09:44;101108.78;;;-2.60;52.05
81232;BME280;70703;55.652;37.710;2023-11-18T00:09:57;101110.47;;;-2.59;52.29
81232;BME280;70703;55.652;37.710;2023-11-18T00:10:10;101103.47;;;-2.58;52.14
81232;BME280;70703;55.652;37.710;2023-11-18T00:10:22;101110.47;;;-2.59;51.94
81232;BME280;70703;55.652;37.710;2023-11-18T00:10:36;101103.53;;;-2.60;51.82
81232;BME280;70703;55.652;37.710;2023-11-18T00:10:48;101110.47;;;-2.59;52.03
81232;BME280;70703;55.652;37.710;2023-11-18T00:11:00;101110.47;;;-2.59;52.02
81232;BME280;70703;55.652;37.710;2023-11-18T00:11:12;101096.59;;;-2.61;52.33
81232;BME280;70703;55.652;37.710;2023-11-18T00:11:25;101110.47;;;-2.59;51.82
81232;BME280;70703;55.652;37.710;2023-11-18T00:11:39;101088.66;;;-2.79;52.22
81232;BME280;70703;55.652;37.710;2023-11-18T00:11:50;101114.88;;;-2.60;52.35
81232;BME280;70703;55.652;37.710;2023-11-18T00:12:04;101113.16;;;-2.61;52.08
81232;BME280;70703;55.652;37.710;2023-11-18T00:12:16;101107.91;;;-2.61;52.10
81232;BME280;70703;55.652;37.710;2023-11-18T00:12:30;101103.72;;;-2.65;52.05
81232;BME280;70703;55.652;37.710;2023-11-18T00:12:42;101107.06;;;-2.61;52.06
81232;BME280;70703;55.652;37.710;2023-11-18T00:12:54;101102.81;;;-2.64;51.99
81232;BME280;70703;55.652;37.710;2023-11-18T00:13:06;101111.44;;;-2.62;51.99
81232;BME280;70703;55.652;37.710;2023-11-18T00:13:17;101056.94;;;-2.91;52.10
81232;BME280;70703;55.652;37.710;2023-11-18T00:13:29;101106.22;;;-2.62;52.16
81232;BME280;70703;55.652;37.710;2023-11-18T00:13:41;101107.91;;;-2.61;51.92
81232;BME280;70703;55.652;37.710;2023-11-18T00:13:53;101103.59;;;-2.62;52.08
81232;BME280;70703;55.652;37.710;2023-11-18T00:14:05;101103.53;;;-2.60;52.08
81232;BME280;70703;55.652;37.710;2023-11-18T00:14:17;101099.28;;;-2.63;51.89
81232;BME280;70703;55.652;37.710;2023-11-18T00:14:33;101108.06;;;-2.64;52.02
81232;BME280;70703;55.652;37.710;2023-11-18T00:14:45;101108.91;;;-2.63;52.35
81232;BME280;70703;55.652;37.710;2023-11-18T00:14:56;101099.56;;;-2.69;52.17
81232;BME280;70703;55.652;37.710;2023-11-18T00:15:09;101102.09;;;-2.67;52.16
81232;BME280;70703;55.652;37.710;2023-11-18T00:15:23;101108.91;;;-2.63;52.13
81232;BME280;70703;55.652;37.710;2023-11-18T00:15:34;101108.06;;;-2.64;52.31
81232;BME280;70703;55.652;37.710;2023-11-18T00:15:48;101101.25;;;-2.68;51.88
81232;BME280;70703;55.652;37.710;2023-11-18T00:16:00;101104.72;;;-2.67;52.14
81232;BME280;70703;55.652;37.710;2023-11-18T00:16:12;101087.72;;;-2.78;51.86
81232;BME280;70703;55.652;37.710;2023-11-18T00:16:24;101105.50;;;-2.65;52.34
81232;BME280;70703;55.652;37.710;2023-11-18T00:16:38;101100.34;;;-2.67;52.40
81232;BME280;70703;55.652;37.710;2023-11-18T00:16:50;101107.22;;;-2.64;52.13
81232;BME280;70703;55.652;37.710;2023-11-18T00:17:03;101109.91;;;-2.66;52.17
81232;BME280;70703;55.652;37.710;2023-11-18T00:17:16;101107.47;;;-2.70;52.19
81232;BME280;70703;55.652;37.710;2023-11-18T00:17:28;101098.00;;;-2.73;51.99
81232;BME280;70703;55.652;37.710;2023-11-18T00:17:40;101065.00;;;-2.96;52.19
81232;BME280;70703;55.652;37.710;2023-11-18T00:17:52;101106.44;;;-2.66;52.27
81232;BME280;70703;55.652;37.710;2023-11-18T00:18:04;101103.94;;;-2.69;52.58
81232;BME280;70703;55.652;37.710;2023-11-18T00:18:16;101109.03;;;-2.66;52.63
81232;BME280;70703;55.652;37.710;2023-11-18T00:18:30;101114.44;;;-2.69;52.45
81232;BME280;70703;55.652;37.710;2023-11-18T00:18:43;101107.34;;;-2.67;52.79
81232;BME280;70703;55.652;37.710;2023-11-18T00:18:55;101109.97;;;-2.67;52.67
81232;BME280;70703;55.652;37.710;2023-11-18T00:19:07;101110.91;;;-2.68;52.67
81232;BME280;70703;55.652;37.710;2023-11-18T00:19:20;101104.03;;;-2.71;53.04
81232;BME280;70703;55.652;37.710;2023-11-18T00:19:32;101106.50;;;-2.68;53.03
81232;BME280;70703;55.652;37.710;2023-11-18T00:19:46;101101.47;;;-2.72;53.06
81232;BME280;70703;55.652;37.710;2023-11-18T00:19:58;101108.28;;;-2.68;52.77
81232;BME280;70703;55.652;37.710;2023-11-18T00:20:12;101103.19;;;-2.71;53.16
81232;BME280;70703;55.652;37.710;2023-11-18T00:20:25;101114.44;;;-2.69;53.02
81232;BME280;70703;55.652;37.710;2023-11-18T00:20:38;101121.38;;;-2.68;52.95
81232;BME280;70703;55.652;37.710;2023-11-18T00:20:51;101110.91;;;-2.68;52.86
81232;BME280;70703;55.652;37.710;2023-11-18T00:21:05;101110.03;;;-2.69;52.65
81232;BME280;70703;55.652;37.710;2023-11-18T00:21:18;101108.34;;;-2.70;52.62
81232;BME280;70703;55.652;37.710;2023-11-18T00:21:30;101108.34;;;-2.70;52.78
81232;BME280;70703;55.652;37.710;2023-11-18T00:21:43;101102.38;;;-2.73;52.82
81232;BME280;70703;55.652;37.710;2023-11-18T00:21:55;101082.00;;;-2.86;52.55
81232;BME280;70703;55.652;37.710;2023-11-18T00:22:07;101107.63;;;-2.73;52.61
81232;BME280;70703;55.652;37.710;2023-11-18T00:22:19;101110.19;;;-2.72;52.65
81232;BME280;70703;55.652;37.710;2023-11-18T00:22:33;101106.66;;;-2.71;52.33
81232;BME280;70703;55.652;37.710;2023-11-18T00:22:46;101114.44;;;-2.69;52.55
81232;BME280;70703;55.652;37.710;2023-11-18T00:22:58;101116.22;;;-2.70;52.33
81232;BME280;70703;55.652;37.710;2023-11-18T00:23:10;101115.34;;;-2.70;52.32
81232;BME280;70703;55.652;37.710;2023-11-18T00:23:22;101109.41;;;-2.74;52.46
81232;BME280;70703;55.652;37.710;2023-11-18T00:23:33;101112.72;;;-2.70;52.36
81232;BME280;70703;55.652;37.710;2023-11-18T00:23:46;101112.72;;;-2.70;52.35
81232;BME280;70703;55.652;37.710;2023-11-18T00:23:59;101119.66;;;-2.69;52.63
81232;BME280;70703;55.652;37.710;2023-11-18T00:24:11;101111.88;;;-2.71;52.53
81232;BME280;70703;55.652;37.710;2023-11-18T00:24:26;101106.72;;;-2.72;52.68
81232;BME280;70703;55.652;37.710;2023-11-18T00:24:37;101112.72;;;-2.70;52.79
81232;BME280;70703;55.652;37.710;2023-11-18T00:24:49;101114.44;;;-2.69;52.56
81232;BME280;70703;55.652;37.710;2023-11-18T00:25:03;101112.88;;;-2.73;53.03
81232;BME280;70703;55.652;37.710;2023-11-18T00:25:16;101116.28;;;-2.71;52.91
81232;BME280;70703;55.652;37.710;2023-11-18T00:25:29;101109.41;;;-2.74;52.63
81232;BME280;70703;55.652;37.710;2023-11-18T00:25:42;101116.28;;;-2.71;52.85
81232;BME280;70703;55.652;37.710;2023-11-18T00:25:56;101105.22;;;-2.78;52.78
81232;BME280;70703;55.652;37.710;2023-11-18T00:26:09;101112.88;;;-2.73;52.97
81232;BME280;70703;55.652;37.710;2023-11-18T00:26:22;101123.19;;;-2.70;52.69
81232;BME280;70703;55.652;37.710;2023-11-18T00:26:41;101114.56;;;-2.72;52.93
81232;BME280;70703;55.652;37.710;2023-11-18T00:26:54;101118.91;;;-2.71;52.74
81232;BME280;70703;55.652;37.710;2023-11-18T00:27:06;101119.81;;;-2.72;52.84
81232;BME280;70703;55.652;37.710;2023-11-18T00:27:18;101116.28;;;-2.71;52.97
81232;BME280;70703;55.652;37.710;2023-11-18T00:27:31;101111.16;;;-2.74;53.01
81232;BME280;70703;55.652;37.710;2023-11-18T00:27:42;101088.94;;;-2.85;52.93
81232;BME280;70703;55.652;37.710;2023-11-18T00:27:55;101113.69;;;-2.73;53.04
81232;BME280;70703;55.652;37.710;2023-11-18T00:28:06;101110.31;;;-2.75;52.99
81232;BME280;70703;55.652;37.710;2023-11-18T00:28:19;101118.91;;;-2.71;52.94
81232;BME280;70703;55.652;37.710;2023-11-18T00:28:32;101116.28;;;-2.71;53.27
81232;BME280;70703;55.652;37.710;2023-11-18T00:28:44;101110.38;;;-2.77;53.15
81232;BME280;70703;55.652;37.710;2023-11-18T00:28:56;101115.41;;;-2.72;53.21
81232;BME280;70703;55.652;37.710;2023-11-18T00:29:08;101086.47;;;-2.88;53.21
81232;BME280;70703;55.652;37.710;2023-11-18T00:29:19;101118.94;;;-2.73;53.26
81232;BME280;70703;55.652;37.710;2023-11-18T00:29:32;101113.69;;;-2.73;53.29
81232;BME280;70703;55.652;37.710;2023-11-18T00:29:44;101105.91;;;-2.74;53.44
81232;BME280;70703;55.652;37.710;2023-11-18T00:29:57;101114.56;;;-2.72;53.07
81232;BME280;70703;55.652;37.710;2023-11-18T00:30:09;101118.03;;;-2.72;53.42
81232;BME280;70703;55.652;37.710;2023-11-18T00:30:22;101115.41;;;-2.72;53.36
81232;BME280;70703;55.652;37.710;2023-11-18T00:30:34;101118.91;;;-2.71;53.25
81232;BME280;70703;55.652;37.710;2023-11-18T00:30:47;101122.56;;;-2.75;53.09
81232;BME280;70703;55.652;37.710;2023-11-18T00:30:59;101115.41;;;-2.72;53.21
81232;BME280;70703;55.652;37.710;2023-11-18T00:31:12;101117.13;;;-2.71;53.03
81232;BME280;70703;55.652;37.710;2023-11-18T00:31:24;101118.03;;;-2.72;53.00
81232;BME280;70703;55.652;37.710;2023-11-18T00:31:37;101123.34;;;-2.73;53.31
81232;BME280;70703;55.652;37.710;2023-11-18T00:31:49;101114.56;;;-2.72;53.16
81232;BME280;70703;55.652;37.710;2023-11-18T00:32:02;101119.75;;;-2.71;53.31
81232;BME280;70703;55.652;37.710;2023-11-18T00:32:16;101118.25;;;-2.77;53.37
81232;BME280;70703;55.652;37.710;2023-11-18T00:32:30;101115.41;;;-2.72;53.31
81232;BME280;70703;55.652;37.710;2023-11-18T00:32:43;101111.16;;;-2.74;53.02
81232;BME280;70703;55.652;37.710;2023-11-18T00:32:56;101111.16;;;-2.74;53.17
81232;BME280;70703;55.652;37.710;2023-11-18T00:33:10;101120.56;;;-2.70;53.05
81232;BME280;70703;55.652;37.710;2023-11-18T00:33:22;101105.91;;;-2.74;53.19
81232;BME280;70703;55.652;37.710;2023-11-18T00:33:35;101113.66;;;-2.71;53.18
81232;BME280;70703;55.652;37.710;2023-11-18T00:33:47;101117.19;;;-2.72;53.10
81232;BME280;70703;55.652;37.710;2023-11-18T00:34:00;101115.34;;;-2.70;53.02
81232;BME280;70703;55.652;37.710;2023-11-18T00:34:10;101102.69;;;-2.80;53.15
81232;BME280;70703;55.652;37.710;2023-11-18T00:34:22;101120.56;;;-2.70;52.96
81232;BME280;70703;55.652;37.710;2023-11-18T00:34:36;101117.97;;;-2.70;53.01
81232;BME280;70703;55.652;37.710;2023-11-18T00:34:49;101108.53;;;-2.74;52.96
81232;BME280;70703;55.652;37.710;2023-11-18T00:35:01;101117.25;;;-2.74;53.12
81232;BME280;70703;55.652;37.710;2023-11-18T00:35:13;101117.13;;;-2.71;53.05
81232;BME280;70703;55.652;37.710;2023-11-18T00:35:26;101118.03;;;-2.72;53.18
81232;BME280;70703;55.652;37.710;2023-11-18T00:35:38;101109.59;;;-2.79;53.09
81232;BME280;70703;55.652;37.710;2023-11-18T00:35:52;101114.66;;;-2.74;53.37
81232;BME280;70703;55.652;37.710;2023-11-18T00:36:05;101117.97;;;-2.70;53.31
81232;BME280;70703;55.652;37.710;2023-11-18T00:36:17;101086.38;;;-2.86;53.50
81232;BME280;70703;55.652;37.710;2023-11-18T00:36:29;101111.16;;;-2.74;53.46
81232;BME280;70703;55.652;37.710;2023-11-18T00:36:41;101110.38;;;-2.77;53.34
81232;BME280;70703;55.652;37.710;2023-11-18T00:36:54;101110.09;;;-2.70;53.39
81232;BME280;70703;55.652;37.710;2023-11-18T00:37:06;101117.97;;;-2.70;53.74
81232;BME280;70703;55.652;37.710;2023-11-18T00:37:18;101120.56;;;-2.70;53.55
81232;BME280;70703;55.652;37.710;2023-11-18T00:37:30;101115.41;;;-2.72;53.30
81232;BME280;70703;55.652;37.710;2023-11-18T00:37:43;101072.09;;;-2.98;53.23
81232;BME280;70703;55.652;37.710;2023-11-18T00:37:56;101111.03;;;-2.71;53.43
81232;BME280;70703;55.652;37.710;2023-11-18T00:38:08;101110.25;;;-2.73;53.80
81232;BME280;70703;55.652;37.710;2023-11-18T00:38:22;101104.25;;;-2.75;53.54
81232;BME280;70703;55.652;37.710;2023-11-18T00:38:33;101112.78;;;-2.72;53.79
81232;BME280;70703;55.652;37.710;2023-11-18T00:38:46;101116.28;;;-2.71;53.65
81232;BME280;70703;55.652;37.710;2023-11-18T00:38:58;101116.28;;;-2.71;53.63
81232;BME280;70703;55.652;37.710;2023-11-18T00:39:10;101118.81;;;-2.70;53.39
81232;BME280;70703;55.652;37.710;2023-11-18T00:39:23;101117.13;;;-2.71;53.35
81232;BME280;70703;55.652;37.710;2023-11-18T00:39:35;101112.72;;;-2.70;53.41
81232;BME280;70703;55.652;37.710;2023-11-18T00:39:48;101120.56;;;-2.70;53.59
81232;BME280;70703;55.652;37.710;2023-11-18T00:40:00;101111.16;;;-2.74;53.31
81232;BME280;70703;55.652;37.710;2023-11-18T00:40:12;101109.59;;;-2.79;53.48
81232;BME280;70703;55.652;37.710;2023-11-18T00:40:25;101115.41;;;-2.72;53.41
81232;BME280;70703;55.652;37.710;2023-11-18T00:40:35;101051.84;;;-3.14;53.44
81232;BME280;70703;55.652;37.710;2023-11-18T00:40:48;101113.69;;;-2.73;53.17
81232;BME280;70703;55.652;37.710;2023-11-18T00:41:00;101107.63;;;-2.73;53.42
81232;BME280;70703;55.652;37.710;2023-11-18T00:41:11;101119.97;;;-2.75;53.21
81232;BME280;70703;55.652;37.710;2023-11-18T00:41:24;101116.41;;;-2.74;53.48
81232;BME280;70703;55.652;37.710;2023-11-18T00:41:36;101108.59;;;-2.76;53.50
81232;BME280;70703;55.652;37.710;2023-11-18T00:41:49;101113.00;;;-2.77;53.42
81232;BME280;70703;55.652;37.710;2023-11-18T00:42:01;101100.06;;;-2.80;53.77
81232;BME280;70703;55.652;37.710;2023-11-18T00:42:12;101115.41;;;-2.72;53.65
81232;BME280;70703;55.652;37.710;2023-11-18T00:42:24;101126.75;;;-2.71;53.64
81232;BME280;70703;55.652;37.710;2023-11-18T00:42:36;101104.34;;;-2.79;53.78
81232;BME280;70703;55.652;37.710;2023-11-18T00:42:50;101121.53;;;-2.71;53.56
81232;BME280;70703;55.652;37.710;2023-11-18T00:43:02;101121.53;;;-2.71;53.67
81232;BME280;70703;55.652;37.710;2023-11-18T00:43:13;101124.97;;;-2.71;53.57
81232;BME280;70703;55.652;37.710;2023-11-18T00:43:25;101120.78;;;-2.75;53.44
81232;BME280;70703;55.652;37.710;2023-11-18T00:43:38;101124.06;;;-2.70;53.72
81232;BME280;70703;55.652;37.710;2023-11-18T00:43:50;101121.53;;;-2.71;53.88
81232;BME280;70703;55.652;37.710;2023-11-18T00:44:02;101116.41;;;-2.74;53.58
81232;BME280;70703;55.652;37.710;2023-11-18T00:44:15;101125.19;;;-2.75;53.65
81232;BME280;70703;55.652;37.710;2023-11-18T00:44:27;101113.00;;;-2.77;53.83
81232;BME280;70703;55.652;37.710;2023-11-18T00:44:39;101123.34;;;-2.73;53.64
81232;BME280;70703;55.652;37.710;2023-11-18T00:44:52;101120.66;;;-2.72;53.74
81232;BME280;70703;55.652;37.710;2023-11-18T00:45:07;101120.78;;;-2.75;53.51
81232;BME280;70703;55.652;37.710;2023-11-18T00:45:21;101110.47;;;-2.78;53.45
81232;BME280;70703;55.652;37.710;2023-11-18T00:45:32;101110.38;;;-2.77;53.60
81232;BME280;70703;55.652;37.710;2023-11-18T00:45:45;101118.09;;;-2.73;53.73
81232;BME280;70703;55.652;37.710;2023-11-18T00:45:58;101127.59;;;-2.71;53.84
81232;BME280;70703;55.652;37.710;2023-11-18T00:46:09;101125.03;;;-2.72;53.79
81232;BME280;70703;55.652;37.710;2023-11-18T00:46:21;101121.56;;;-2.73;53.51
81232;BME280;70703;55.652;37.710;2023-11-18T00:46:34;101120.56;;;-2.70;53.56
81232;BME280;70703;55.652;37.710;2023-11-18T00:46:47;101121.53;;;-2.71;53.33
81232;BME280;70703;55.652;37.710;2023-11-18T00:46:59;101079.00;;;-2.97;53.56
81232;BME280;70703;55.652;37.710;2023-11-18T00:47:12;101121.53;;;-2.71;53.46
81232;BME280;70703;55.652;37.710;2023-11-18T00:47:25;101113.00;;;-2.77;53.49
81232;BME280;70703;55.652;37.710;2023-11-18T00:47:36;101124.13;;;-2.71;53.79
81232;BME280;70703;55.652;37.710;2023-11-18T00:47:49;101119.81;;;-2.72;53.55
81232;BME280;70703;55.652;37.710;2023-11-18T00:48:01;101119.00;;;-2.74;53.55
81232;BME280;70703;55.652;37.710;2023-11-18T00:48:13;101118.94;;;-2.73;53.74
81232;BME280;70703;55.652;37.710;2023-11-18T00:48:26;101125.88;;;-2.72;53.87
81232;BME280;70703;55.652;37.710;2023-11-18T00:48:38;101118.94;;;-2.73;53.59
81232;BME280;70703;55.652;37.710;2023-11-18T00:48:50;101099.41;;;-2.85;53.58
81232;BME280;70703;55.652;37.710;2023-11-18T00:49:01;101126.75;;;-2.71;53.53
81232;BME280;70703;55.652;37.710;2023-11-18T00:49:14;101109.47;;;-2.75;53.84
81232;BME280;70703;55.652;37.710;2023-11-18T00:49:25;101125.88;;;-2.72;53.48
81232;BME280;70703;55.652;37.710;2023-11-18T00:49:37;101118.91;;;-2.71;53.50
81232;BME280;70703;55.652;37.710;2023-11-18T00:49:49;101119.97;;;-2.75;53.44
81232;BME280;70703;55.652;37.710;2023-11-18T00:50:06;101118.94;;;-2.73;53.50
81232;BME280;70703;55.652;37.710;2023-11-18T00:50:20;101114.72;;;-2.75;53.84
81232;BME280;70703;55.652;37.710;2023-11-18T00:50:33;101125.03;;;-2.72;53.46
81232;BME280;70703;55.652;37.710;2023-11-18T00:50:45;101125.03;;;-2.72;53.59
81232;BME280;70703;55.652;37.710;2023-11-18T00:50:56;101120.66;;;-2.72;53.69
81232;BME280;70703;55.652;37.710;2023-11-18T00:51:09;101127.75;;;-2.74;53.90
81232;BME280;70703;55.652;37.710;2023-11-18T00:51:21;101122.50;;;-2.74;53.44
81232;BME280;70703;55.652;37.710;2023-11-18T00:51:33;101125.03;;;-2.72;53.73
81232;BME280;70703;55.652;37.710;2023-11-18T00:51:45;101119.97;;;-2.75;53.35
81232;BME280;70703;55.652;37.710;2023-11-18T00:51:57;101118.19;;;-2.75;53.45
81232;BME280;70703;55.652;37.710;2023-11-18T00:52:11;101124.19;;;-2.73;53.37
81232;BME280;70703;55.652;37.710;2023-11-18T00:52:23;101119.00;;;-2.74;53.39
81232;BME280;70703;55.652;37.710;2023-11-18T00:52:36;101120.06;;;-2.79;53.55
81232;BME280;70703;55.652;37.710;2023-11-18T00:52:51;101116.41;;;-2.74;53.49
81232;BME280;70703;55.652;37.710;2023-11-18T00:53:03;101100.22;;;-2.83;53.26
81232;BME280;70703;55.652;37.710;2023-11-18T00:53:17;101125.03;;;-2.72;53.30
81232;BME280;70703;55.652;37.710;2023-11-18T00:53:29;101119.97;;;-2.75;53.45
81232;BME280;70703;55.652;37.710;2023-11-18T00:53:41;101120.88;;;-2.77;53.62
81232;BME280;70703;55.652;37.710;2023-11-18T00:53:54;101096.13;;;-2.90;53.35
81232;BME280;70703;55.652;37.710;2023-11-18T00:54:06;101128.72;;;-2.77;53.46
81232;BME280;70703;55.652;37.710;2023-11-18T00:54:17;101127.66;;;-2.72;53.52
81232;BME280;70703;55.652;37.710;2023-11-18T00:54:30;101129.41;;;-2.73;53.83
81232;BME280;70703;55.652;37.710;2023-11-18T00:54:42;101123.34;;;-2.73;53.69
81232;BME280;70703;55.652;37.710;2023-11-18T00:54:54;101106.59;;;-2.90;53.63
81232;BME280;70703;55.652;37.710;2023-11-18T00:55:06;101121.63;;;-2.74;53.61
81232;BME280;70703;55.652;37.710;2023-11-18T00:55:18;101120.06;;;-2.79;53.70
81232;BME280;70703;55.652;37.710;2023-11-18T00:55:29;101131.19;;;-2.73;53.85
81232;BME280;70703;55.652;37.710;2023-11-18T00:55:44;101132.09;;;-2.74;53.55
81232;BME280;70703;55.652;37.710;2023-11-18T00:55:56;101129.50;;;-2.74;53.70
81232;BME280;70703;55.652;37.710;2023-11-18T00:56:09;101131.28;;;-2.75;53.84
81232;BME280;70703;55.652;37.710;2023-11-18T00:56:23;101122.50;;;-2.74;53.46
81232;BME280;70703;55.652;37.710;2023-11-18T00:56:36;101097.16;;;-2.92;53.64
81232;BME280;70703;55.652;37.710;2023-11-18T00:56:52;101132.09;;;-2.74;53.42
81232;BME280;70703;55.652;37.710;2023-11-18T00:57:04;101126.88;;;-2.74;53.50
81232;BME280;70703;55.652;37.710;2023-11-18T00:57:16;101081.91;;;-3.03;53.36
81232;BME280;70703;55.652;37.710;2023-11-18T00:57:28;101126.88;;;-2.74;53.80
81232;BME280;70703;55.652;37.710;2023-11-18T00:57:40;101127.00;;;-2.78;53.86
81232;BME280;70703;55.652;37.710;2023-11-18T00:57:52;101125.31;;;-2.79;53.91
81232;BME280;70703;55.652;37.710;2023-11-18T00:58:05;101115.78;;;-2.80;54.04
81232;BME280;70703;55.652;37.710;2023-11-18T00:58:17;101124.31;;;-2.76;53.98
81232;BME280;70703;55.652;37.710;2023-11-18T00:58:29;101122.81;;;-2.82;53.91
81232;BME280;70703;55.652;37.710;2023-11-18T00:58:43;101129.63;;;-2.78;53.76
81232;BME280;70703;55.652;37.710;2023-11-18T00:58:55;101099.75;;;-2.92;53.90
81232;BME280;70703;55.652;37.710;2023-11-18T00:59:07;101135.66;;;-2.75;53.61
81232;BME280;70703;55.652;37.710;2023-11-18T00:59:19;101120.28;;;-2.83;53.99
81232;BME280;70703;55.652;37.710;2023-11-18T00:59:31;101127.00;;;-2.78;53.78
81232;BME280;70703;55.652;37.710;2023-11-18T00:59:43;101106.59;;;-2.90;53.89
81232;BME280;70703;55.652;37.710;2023-11-18T00:59:56;101127.91;;;-2.79;53.87
81232;BME280;70703;55.652;37.710;2023-11-18T01:00:12;101129.63;;;-2.78;53.96
81232;BME280;70703;55.652;37.710;2023-11-18T01:00:26;101124.69;;;-2.84;53.73
81232;BME280;70703;55.652;37.710;2023-11-18T01:00:39;101117.66;;;-2.83;53.70
81232;BME280;70703;55.652;37.710;2023-11-18T01:00:51;101120.94;;;-2.78;53.86
81232;BME280;70703;55.652;37.710;2023-11-18T01:01:04;101127.88;;;-2.77;53.62
81232;BME280;70703;55.652;37.710;2023-11-18T01:01:19;101130.53;;;-2.79;53.73
81232;BME280;70703;55.652;37.710;2023-11-18T01:01:33;101132.25;;;-2.78;53.58
81232;BME280;70703;55.652;37.710;2023-11-18T01:01:46;101123.63;;;-2.80;53.77
81232;BME280;70703;55.652;37.710;2023-11-18T01:02:00;101123.63;;;-2.80;53.84
81232;BME280;70703;55.652;37.710;2023-11-18T01:02:12;101127.09;;;-2.79;53.69
81232;BME280;70703;55.652;37.710;2023-11-18T01:02:24;101128.88;;;-2.80;53.89
81232;BME280;70703;55.652;37.710;2023-11-18T01:02:35;101118.56;;;-2.84;53.94
81232;BME280;70703;55.652;37.710;2023-11-18T01:02:46;101126.38;;;-2.83;53.93
81232;BME280;70703;55.652;37.710;2023-11-18T01:02:59;101118.53;;;-2.83;53.63
81232;BME280;70703;55.652;37.710;2023-11-18T01:03:10;101103.38;;;-2.95;53.65
81232;BME280;70703;55.652;37.710;2023-11-18T01:03:22;101130.53;;;-2.79;53.87
81232;BME280;70703;55.652;37.710;2023-11-18T01:03:34;101124.53;;;-2.81;53.56
81232;BME280;70703;55.652;37.710;2023-11-18T01:03:46;101097.31;;;-2.97;53.64
81232;BME280;70703;55.652;37.710;2023-11-18T01:03:59;101118.56;;;-2.84;53.83
81232;BME280;70703;55.652;37.710;2023-11-18T01:04:11;101128.00;;;-2.80;53.73
81232;BME280;70703;55.652;37.710;2023-11-18T01:04:24;101123.78;;;-2.83;53.87
81232;BME280;70703;55.652;37.710;2023-11-18T01:04:37;101121.91;;;-2.81;53.61
81232;BME280;70703;55.652;37.710;2023-11-18T01:04:50;101129.78;;;-2.81;53.81